Time;durP1;ratioP1;P1;durP2;ratioP2;P2;SDS_P1;SDS_P2;PMS_P1;PMS_P2;Temp;Humidity;BMP_temperature;BMP_pressure;BME280_temperature;BME280_humidity;BME280_pressure;Samples;Min_cycle;Max_cycle;Signal;HPM_P1;HPM_P2
2021/08/04 00:02:15;;;;;;;23.42;20.92;;;;;;;15.67;74.42;99675.84;4974574;28;20075;-65
2021/08/04 00:05:14;;;;;;;25.55;21.58;;;;;;;15.66;74.30;99671.50;4960726;28;20102;-64
2021/08/04 00:07:58;;;;;;;24.77;21.98;;;;;;;15.66;74.50;99675.00;4960011;28;20050;-65
2021/08/04 00:10:45;;;;;;;24.35;20.60;;;;;;;15.65;74.31;99668.03;4974442;28;20135;-64
2021/08/04 00:13:28;;;;;;;25.05;20.80;;;;;;;15.64;74.18;99676.75;4960113;28;20046;-64
2021/08/04 00:16:12;;;;;;;23.15;19.88;;;;;;;15.63;74.47;99669.81;4960140;28;20049;-63
2021/08/04 00:18:59;;;;;;;24.60;22.08;;;;;;;15.63;74.58;99674.19;4974114;28;20101;-64
2021/08/04 00:21:57;;;;;;;24.17;21.55;;;;;;;15.62;74.55;99675.91;4974748;28;20062;-64
2021/08/04 00:25:00;;;;;;;25.25;22.60;;;;;;;15.62;74.50;99675.91;4974477;28;20078;-64
2021/08/04 00:27:59;;;;;;;23.70;21.20;;;;;;;15.61;74.61;99673.31;4974806;28;20055;-64
2021/08/04 00:30:54;;;;;;;24.20;21.25;;;;;;;15.61;74.30;99673.31;4978386;28;20109;-64
2021/08/04 00:33:58;;;;;;;24.67;20.30;;;;;;;15.61;74.26;99674.16;4977844;28;20058;-64
2021/08/04 00:36:47;;;;;;;23.65;21.15;;;;;;;15.61;74.40;99679.41;4977980;28;20058;-64
2021/08/04 00:39:34;;;;;;;24.20;20.77;;;;;;;15.60;74.47;99676.81;4977868;28;20065;-64
2021/08/04 00:42:21;;;;;;;25.08;22.48;;;;;;;15.60;74.49;99677.66;4963200;28;20097;-64
2021/08/04 00:45:20;;;;;;;22.95;19.95;;;;;;;15.58;74.55;99674.19;4978248;28;20049;-64
2021/08/04 00:48:30;;;;;;;24.92;22.20;;;;;;;15.58;74.29;99674.19;4962637;28;20105;-64
2021/08/04 00:51:22;;;;;;;24.85;21.23;;;;;;;15.57;74.39;99679.44;4963215;28;20453;-64
2021/08/04 00:54:19;;;;;;;25.55;21.67;;;;;;;15.55;74.48;99671.66;4963450;28;20049;-64
2021/08/04 00:57:20;;;;;;;25.73;23.02;;;;;;;15.57;74.52;99669.84;4963377;28;20054;-64
2021/08/04 01:00:22;;;;;;;24.27;21.75;;;;;;;15.56;74.41;99672.50;4963161;28;20050;-64
2021/08/04 01:03:17;;;;;;;25.73;23.00;;;;;;;15.55;74.40;99675.97;4962578;28;20097;-65
2021/08/04 01:06:05;;;;;;;24.45;21.67;;;;;;;15.55;74.51;99673.38;4962738;28;20126;-64
2021/08/04 01:08:57;;;;;;;25.75;22.10;;;;;;;15.55;74.42;99673.38;4977526;28;20186;-63
2021/08/04 01:11:54;;;;;;;25.33;22.63;;;;;;;15.55;74.52;99665.53;4977406;28;20077;-65
2021/08/04 01:14:54;;;;;;;24.35;21.80;;;;;;;15.54;74.52;99664.69;4977367;28;20057;-64
2021/08/04 01:17:53;;;;;;;27.05;21.23;;;;;;;15.53;74.50;99670.78;4977188;28;20042;-64
2021/08/04 01:20:52;;;;;;;27.20;21.10;;;;;;;15.53;74.56;99671.63;4962462;28;20420;-64
2021/08/04 01:24:13;;;;;;;21.75;19.52;;;;;;;15.51;74.53;99662.94;4976992;28;20470;-63
2021/08/04 01:27:13;;;;;;;24.75;21.10;;;;;;;15.53;74.33;99670.78;4976812;28;20061;-63
2021/08/04 01:30:11;;;;;;;25.02;21.15;;;;;;;15.51;74.40;99668.19;4962920;28;20050;-65
2021/08/04 01:33:10;;;;;;;23.65;20.88;;;;;;;15.50;74.34;99661.22;4962055;28;20050;-64
2021/08/04 01:35:58;;;;;;;23.55;20.52;;;;;;;15.50;74.51;99671.66;4962760;28;20521;-65
2021/08/04 01:38:43;;;;;;;25.60;22.15;;;;;;;15.50;74.32;99660.38;4961888;28;20050;-63
2021/08/04 01:41:32;;;;;;;23.92;21.25;;;;;;;15.49;74.50;99662.09;4962620;28;20050;-64
2021/08/04 01:44:32;;;;;;;25.48;22.15;;;;;;;15.48;74.43;99656.91;4962313;28;20053;-64
2021/08/04 01:47:33;;;;;;;25.95;22.08;;;;;;;15.47;74.42;99656.06;4977051;28;20106;-63
2021/08/04 01:50:27;;;;;;;25.63;21.80;;;;;;;15.47;74.54;99652.56;4961909;28;20085;-64
2021/08/04 01:53:25;;;;;;;22.98;20.58;;;;;;;15.46;74.51;99656.06;4976270;28;20069;-63
2021/08/04 01:56:23;;;;;;;26.30;22.58;;;;;;;15.46;74.35;99653.44;4962232;28;20046;-64
2021/08/04 01:59:23;;;;;;;24.67;21.40;;;;;;;15.46;74.50;99653.44;4962062;28;20097;-64
2021/08/04 02:02:27;;;;;;;28.48;20.63;;;;;;;15.45;74.33;99646.47;4955943;29;20091;-64
2021/08/04 02:05:11;;;;;;;23.00;20.33;;;;;;;15.45;74.50;99655.19;4957443;29;20065;-64
2021/08/04 02:08:02;;;;;;;26.58;21.42;;;;;;;15.44;74.52;99645.63;4957494;29;20149;-64
2021/08/04 02:11:27;;;;;;;23.80;21.20;;;;;;;15.43;74.49;99645.63;4957071;29;20533;-64
2021/08/04 02:14:36;;;;;;;23.60;21.10;;;;;;;15.43;74.48;99646.50;4956300;29;20077;-63
2021/08/04 02:17:45;;;;;;;25.25;20.63;;;;;;;15.42;74.42;99647.38;4956340;29;20058;-64
2021/08/04 02:20:46;;;;;;;22.52;20.13;;;;;;;15.42;74.46;99647.38;4957140;29;20186;-65
2021/08/04 02:23:37;;;;;;;25.98;20.40;;;;;;;15.43;74.46;99643.03;4956837;29;20110;-64
2021/08/04 02:26:22;;;;;;;22.77;19.48;;;;;;;15.41;74.58;99652.66;4956430;29;20094;-64
2021/08/04 02:29:07;;;;;;;;;;;;;;;15.38;74.46;99638.72;4957428;29;20081;-63
2021/08/04 02:31:51;;;;;;;22.05;19.10;;;;;;;15.38;74.50;99645.69;4955919;29;19974;-63
2021/08/04 02:34:55;;;;;;;24.67;19.17;;;;;;;15.39;74.41;99647.41;4955685;29;20112;-64
2021/08/04 02:37:56;;;;;;;23.23;19.88;;;;;;;15.39;74.45;99647.41;4956930;29;20406;-63
2021/08/04 02:40:51;;;;;;;21.42;19.13;;;;;;;15.37;74.52;99634.38;4956604;29;20178;-63
2021/08/04 02:43:50;;;;;;;21.15;18.95;;;;;;;15.37;74.48;99626.56;4955035;29;20049;-64
2021/08/04 02:46:51;;;;;;;22.90;18.45;;;;;;;15.38;74.58;99630.91;4956559;29;20085;-64
2021/08/04 02:49:52;;;;;;;21.70;19.48;;;;;;;15.37;74.46;99636.13;4956037;29;20131;-65
2021/08/04 02:52:49;;;;;;;21.42;19.00;;;;;;;15.35;74.55;99630.94;4955297;29;20074;-64
2021/08/04 02:55:36;;;;;;;25.27;19.05;;;;;;;15.36;74.57;99631.78;4955260;29;20112;-64
2021/08/04 02:58:20;;;;;;;22.15;18.55;;;;;;;15.35;74.61;99630.03;4955487;29;20054;-64
2021/08/04 03:01:07;;;;;;;22.80;20.02;;;;;;;15.35;74.63;99640.47;4956121;29;20087;-63
2021/08/04 03:04:05;;;;;;;20.75;18.65;;;;;;;15.34;74.53;99637.03;4955493;29;20462;-64
2021/08/04 03:07:06;;;;;;;20.77;17.73;;;;;;;15.34;74.46;99639.63;4955871;29;20045;-64
2021/08/04 03:10:06;;;;;;;24.27;19.42;;;;;;;15.33;74.49;99634.44;4955703;29;20175;-63
2021/08/04 03:13:07;;;;;;;23.08;18.42;;;;;;;15.34;74.48;99643.97;4955014;29;20082;-63
2021/08/04 03:16:05;;;;;;;21.05;18.80;;;;;;;15.33;74.86;99642.28;4954465;29;20126;-65
2021/08/04 03:19:05;;;;;;;22.90;18.65;;;;;;;15.31;74.27;99639.66;4955782;29;20050;-63
2021/08/04 03:21:50;;;;;;;21.13;18.02;;;;;;;15.31;74.29;99641.41;4955933;29;20138;-63
2021/08/04 03:24:36;;;;;;;20.90;18.55;;;;;;;15.29;74.54;99645.78;4955894;29;20097;-63
2021/08/04 03:27:20;;;;;;;21.38;19.17;;;;;;;15.28;74.43;99649.28;4955621;29;20533;-64
2021/08/04 03:30:04;;;;;;;22.58;18.70;;;;;;;15.27;74.44;99651.00;4955953;29;20042;-63
2021/08/04 03:33:04;;;;;;;22.75;18.92;;;;;;;15.27;74.51;99655.38;4955271;29;20097;-64
2021/08/04 03:36:05;;;;;;;23.63;19.95;;;;;;;15.27;74.56;99652.75;4955209;29;20097;-63
2021/08/04 03:39:06;;;;;;;23.25;19.52;;;;;;;15.26;74.53;99656.25;4955495;29;20562;-64
2021/08/04 03:42:07;;;;;;;25.98;20.00;;;;;;;15.27;74.44;99658.84;4955464;29;20038;-63
2021/08/04 03:45:02;;;;;;;24.00;20.90;;;;;;;15.26;74.53;99654.50;4955466;29;20555;-63
2021/08/04 03:47:53;;;;;;;23.10;20.10;;;;;;;15.26;74.51;99659.72;4954484;29;20050;-63
2021/08/04 03:50:37;;;;;;;23.10;20.70;;;;;;;15.27;74.57;99664.06;4955194;29;20054;-64
2021/08/04 03:53:21;;;;;;;21.48;19.08;;;;;;;15.28;74.47;99664.94;4954360;29;20106;-64
2021/08/04 03:56:22;;;;;;;22.48;20.10;;;;;;;15.26;74.62;99661.47;4955229;29;20066;-63
2021/08/04 03:59:23;;;;;;;23.02;19.52;;;;;;;15.26;74.63;99667.53;4955170;29;20051;-63
2021/08/04 04:02:21;;;;;;;23.17;20.42;;;;;;;15.26;74.43;99659.72;4962894;28;20054;-64
2021/08/04 04:05:22;;;;;;;23.85;19.58;;;;;;;15.27;74.40;99665.81;4978286;28;20587;-64
2021/08/04 04:08:22;;;;;;;24.02;21.38;;;;;;;15.25;74.65;99660.63;4964261;28;20101;-64
2021/08/04 04:11:12;;;;;;;21.60;19.30;;;;;;;15.26;74.18;99666.69;4964078;28;20466;-64
2021/08/04 04:13:56;;;;;;;25.08;18.90;;;;;;;15.26;74.64;99666.69;4963903;28;20395;-63
2021/08/04 04:16:40;;;;;;;;;;;;;;;15.25;74.59;99676.28;4978985;28;20057;-64
2021/08/04 04:19:24;;;;;;;22.27;19.45;;;;;;;15.23;74.69;99668.44;4964127;28;19944;-64
2021/08/04 04:22:11;;;;;;;26.38;19.90;;;;;;;15.26;74.55;99672.75;4964256;28;20122;-64
2021/08/04 04:24:55;;;;;;;24.27;19.85;;;;;;;15.27;74.78;99673.66;4978323;28;20287;-63
2021/08/04 04:27:56;;;;;;;24.73;20.00;;;;;;;15.27;74.66;99678.88;4963724;28;20050;-63
2021/08/04 04:30:57;;;;;;;24.45;19.63;;;;;;;15.29;74.84;99672.75;4963350;28;20421;-64
2021/08/04 04:33:57;;;;;;;21.73;18.23;;;;;;;15.30;74.74;99673.63;4978211;28;20466;-64
2021/08/04 04:36:58;;;;;;;25.20;18.98;;;;;;;15.29;74.42;99672.75;4977647;28;20109;-65
2021/08/04 04:40:02;;;;;;;23.08;18.80;;;;;;;15.30;74.72;99671.00;4963640;28;20057;-64
2021/08/04 04:43:02;;;;;;;23.70;19.10;;;;;;;15.30;74.60;99673.63;4978237;28;20085;-64
2021/08/04 04:45:49;;;;;;;25.13;18.65;;;;;;;15.30;74.70;99677.09;4963276;28;20117;-64
2021/08/04 04:48:33;;;;;;;24.52;19.38;;;;;;;15.31;74.74;99675.38;4978262;28;20557;-63
2021/08/04 04:51:17;;;;;;;22.08;17.83;;;;;;;15.31;74.66;99676.22;4977296;28;20101;-64
2021/08/04 04:54:02;;;;;;;21.08;18.80;;;;;;;15.31;75.04;99680.59;4977787;28;20054;-64
2021/08/04 04:56:56;;;;;;;;;;;;;;;15.29;74.81;99674.50;4978046;28;20085;-64
2021/08/04 04:59:54;;;;;;;21.15;18.35;;;;;;;15.29;74.83;99672.75;4962619;28;19921;-64
2021/08/04 05:02:50;;;;;;;20.48;18.15;;;;;;;15.30;74.92;99671.00;4977463;28;20058;-63
2021/08/04 05:05:48;;;;;;;21.70;17.45;;;;;;;15.31;74.91;99670.13;4962876;28;20045;-63
2021/08/04 05:08:48;;;;;;;20.85;18.48;;;;;;;15.31;75.03;99671.00;4977550;28;20602;-64
2021/08/04 05:11:41;;;;;;;22.08;18.38;;;;;;;15.33;74.83;99673.59;4977383;28;20057;-63
2021/08/04 05:14:44;;;;;;;24.05;17.65;;;;;;;15.34;75.25;99672.69;4963136;28;20426;-64
2021/08/04 05:17:32;;;;;;;20.63;16.95;;;;;;;15.35;75.01;99677.03;4977280;28;20065;-64
2021/08/04 05:20:29;;;;;;;20.13;18.02;;;;;;;15.34;75.13;99668.34;4976927;28;20049;-64
2021/08/04 05:23:28;;;;;;;22.15;16.85;;;;;;;15.36;75.06;99679.66;4977172;28;20090;-64
2021/08/04 05:26:24;;;;;;;23.17;18.33;;;;;;;15.37;74.97;99689.22;4977456;28;20045;-64
2021/08/04 05:29:16;;;;;;;24.38;20.40;;;;;;;15.38;75.11;99684.84;4962464;28;20049;-63
2021/08/04 05:32:09;;;;;;;33.35;29.85;;;;;;;15.40;74.87;99685.69;4962085;28;20517;-63
2021/08/04 05:35:02;;;;;;;37.85;31.92;;;;;;;15.42;74.97;99688.28;4976922;28;20050;-63
2021/08/04 05:37:45;;;;;;;47.25;42.15;;;;;;;15.42;75.27;99688.28;4962355;28;20146;-63
2021/08/04 05:40:35;;;;;;;45.33;40.50;;;;;;;15.42;75.16;99686.56;4962449;28;20118;-63
2021/08/04 05:43:25;;;;;;;40.83;36.55;;;;;;;15.42;75.32;99690.91;4976974;28;20070;-64
2021/08/04 05:46:12;;;;;;;38.90;34.38;;;;;;;15.43;75.06;99688.28;4962609;28;20046;-64
2021/08/04 05:49:10;;;;;;;32.03;28.52;;;;;;;15.43;75.14;99690.91;4962629;28;20522;-65
2021/08/04 05:52:03;;;;;;;29.00;25.05;;;;;;;15.44;75.17;99690.03;4976258;28;20077;-64
2021/08/04 05:54:54;;;;;;;25.65;22.70;;;;;;;15.44;75.41;99687.41;4961563;28;20050;-64
2021/08/04 05:57:50;;;;;;;23.35;20.85;;;;;;;15.45;75.46;99683.03;4962147;28;20081;-64
2021/08/04 06:00:45;;;;;;;24.73;21.08;;;;;;;15.45;75.35;99686.53;4976458;28;20050;-63
2021/08/04 06:03:36;;;;;;;23.92;18.42;;;;;;;15.47;75.51;99692.63;4961531;28;20054;-64
2021/08/04 06:06:29;;;;;;;21.98;18.95;;;;;;;15.47;75.30;99694.34;4962142;28;20561;-63
2021/08/04 06:09:19;;;;;;;18.83;16.48;;;;;;;15.48;75.45;99690.84;4976809;28;20411;-63
2021/08/04 06:12:15;;;;;;;21.17;17.70;;;;;;;15.48;75.28;99696.97;4976135;28;20130;-64
2021/08/04 06:15:02;;;;;;;21.30;17.05;;;;;;;15.49;75.42;99693.44;4961708;28;20098;-64
2021/08/04 06:17:51;;;;;;;23.05;17.10;;;;;;;15.49;75.57;99693.44;4961801;28;20054;-64
2021/08/04 06:20:44;;;;;;;20.38;17.55;;;;;;;15.49;75.60;99698.66;4976058;28;20426;-64
2021/08/04 06:23:37;;;;;;;18.58;16.63;;;;;;;15.49;75.65;99698.66;4961814;28;20422;-64
2021/08/04 06:26:21;;;;;;;18.50;16.50;;;;;;;15.50;75.56;99696.94;4975433;28;20074;-64
2021/08/04 06:29:05;;;;;;;18.88;16.33;;;;;;;15.51;75.65;99696.06;4975698;28;20112;-65
2021/08/04 06:31:52;;;;;;;18.08;15.50;;;;;;;15.51;75.73;99702.13;4976443;28;20078;-64
2021/08/04 06:34:42;;;;;;;20.38;16.10;;;;;;;15.52;75.63;99697.78;4961860;28;20158;-64
2021/08/04 06:37:37;;;;;;;19.63;15.70;;;;;;;15.54;75.81;99706.47;4975532;28;20113;-64
2021/08/04 06:40:27;;;;;;;18.30;15.82;;;;;;;15.53;75.73;99702.13;4975887;28;20058;-64
2021/08/04 06:43:19;;;;;;;16.80;14.98;;;;;;;15.55;75.61;99702.09;4975992;28;20105;-64
2021/08/04 06:46:19;;;;;;;19.67;15.55;;;;;;;15.55;75.57;99697.75;4961077;28;20211;-64
2021/08/04 06:49:07;;;;;;;16.70;14.73;;;;;;;15.55;75.65;99700.38;4961228;28;20050;-63
2021/08/04 06:51:51;;;;;;;17.67;15.77;;;;;;;15.56;75.67;99698.63;4960737;28;20046;-64
2021/08/04 06:54:35;;;;;;;;;;;;;;;15.55;75.76;99709.94;4975788;28;20049;-64
2021/08/04 06:57:19;;;;;;;19.95;16.42;;;;;;;15.53;75.66;99709.97;4975358;28;19921;-65
2021/08/04 07:00:09;;;;;;;19.27;16.33;;;;;;;15.55;75.63;99702.09;4961271;28;20130;-65
2021/08/04 07:02:59;;;;;;;20.90;16.65;;;;;;;15.55;75.95;99705.59;4960583;28;20097;-64
2021/08/04 07:05:43;;;;;;;19.73;16.00;;;;;;;15.57;75.86;99702.97;4961111;28;20089;-64
2021/08/04 07:08:36;;;;;;;18.48;15.30;;;;;;;15.58;75.71;99707.31;4975277;28;20472;-64
2021/08/04 07:11:23;;;;;;;18.55;14.93;;;;;;;15.58;75.50;99702.94;4960386;28;20042;-64
2021/08/04 07:14:17;;;;;;;19.00;15.13;;;;;;;15.58;76.06;99709.91;4974584;28;20457;-63
2021/08/04 07:17:07;;;;;;;16.63;14.75;;;;;;;15.60;75.76;99709.00;4960756;28;20132;-64
2021/08/04 07:19:54;;;;;;;18.27;15.27;;;;;;;15.60;75.68;99703.78;4961286;28;20434;-63
2021/08/04 07:22:47;;;;;;;18.73;14.35;;;;;;;15.62;75.64;99703.78;4960720;28;20066;-63
2021/08/04 07:25:37;;;;;;;18.48;13.50;;;;;;;15.63;75.70;99700.28;4960388;28;20462;-64
2021/08/04 07:28:35;;;;;;;17.75;15.05;;;;;;;15.63;75.80;99701.16;4975027;28;20062;-63
2021/08/04 07:31:28;;;;;;;17.02;14.00;;;;;;;15.64;75.55;99704.63;4960362;28;20411;-64
2021/08/04 07:34:24;;;;;;;17.42;14.20;;;;;;;15.64;75.83;99692.44;4975216;28;20446;-64
2021/08/04 07:37:17;;;;;;;17.42;14.00;;;;;;;15.66;75.61;99695.00;4960529;28;20046;-64
2021/08/04 07:40:04;;;;;;;17.77;13.70;;;;;;;15.67;75.62;99696.75;4960317;28;20093;-64
2021/08/04 07:42:49;;;;;;;19.35;15.68;;;;;;;15.69;75.60;99700.22;4960436;28;20524;-63
2021/08/04 07:45:33;;;;;;;18.38;14.07;;;;;;;15.70;75.51;99704.56;4960318;28;20058;-64
2021/08/04 07:48:27;;;;;;;;;;;;;;;15.70;75.44;99701.09;4975328;28;20113;-64
2021/08/04 07:51:15;;;;;;;19.55;16.35;;;;;;;15.69;75.66;99700.22;4959920;28;19929;-64
2021/08/04 07:54:02;;;;;;;19.63;16.60;;;;;;;15.71;75.49;99698.44;4960192;28;20054;-64
2021/08/04 07:56:46;;;;;;;17.98;15.75;;;;;;;15.73;75.50;99698.41;4960300;28;20050;-65
2021/08/04 07:59:39;;;;;;;21.75;17.33;;;;;;;15.73;75.52;99703.66;4960330;28;20399;-65
2021/08/04 08:02:29;;;;;;;22.98;17.77;;;;;;;15.73;75.55;99704.53;4960328;28;20462;-64
2021/08/04 08:05:19;;;;;;;18.20;14.52;;;;;;;15.75;75.40;99708.00;4959964;28;20050;-64
2021/08/04 08:08:08;;;;;;;26.48;18.38;;;;;;;15.76;75.07;99704.50;4974626;28;20053;-64
2021/08/04 08:11:03;;;;;;;19.90;16.65;;;;;;;15.78;75.55;99707.97;4960072;28;20049;-64
2021/08/04 08:13:55;;;;;;;20.38;17.30;;;;;;;15.79;75.34;99701.88;4974429;28;20042;-63
2021/08/04 08:16:48;;;;;;;25.55;20.10;;;;;;;15.82;75.42;99706.19;4960340;28;20086;-64
2021/08/04 08:19:33;;;;;;;19.08;15.55;;;;;;;15.82;75.45;99703.56;4974269;28;20457;-64
2021/08/04 08:22:19;;;;;;;24.35;19.95;;;;;;;15.83;75.27;99700.94;4959725;28;20061;-63
2021/08/04 08:25:07;;;;;;;25.48;17.92;;;;;;;15.84;75.15;99699.19;4974826;28;20546;-64
2021/08/04 08:27:52;;;;;;;26.33;19.58;;;;;;;15.85;75.44;99706.19;4974534;28;20520;-64
2021/08/04 08:30:36;;;;;;;;;;;;;;;15.86;75.20;99700.06;4974688;28;20050;-64
2021/08/04 08:33:20;;;;;;;24.63;20.23;;;;;;;15.87;75.41;99700.94;4973972;28;20052;-65
2021/08/04 08:36:13;;;;;;;29.20;20.33;;;;;;;15.89;75.28;99701.78;4974352;28;20479;-65
2021/08/04 08:39:05;;;;;;;27.30;22.10;;;;;;;15.91;75.35;99710.47;4959336;28;20093;-64
2021/08/04 08:41:54;;;;;;;22.80;17.90;;;;;;;15.92;75.02;99705.22;4974348;28;20462;-63
2021/08/04 08:44:44;;;;;;;23.45;20.52;;;;;;;15.95;75.10;99705.19;4960084;28;20054;-63
2021/08/04 08:47:29;;;;;;;26.38;22.08;;;;;;;15.96;75.14;99703.47;4973734;28;20069;-64
2021/08/04 08:50:14;;;;;;;28.60;22.17;;;;;;;15.97;75.37;99705.16;4977245;28;20053;-64
2021/08/04 08:53:01;;;;;;;21.88;19.52;;;;;;;15.96;75.15;99706.06;4963402;28;20113;-64
2021/08/04 08:55:49;;;;;;;25.65;21.83;;;;;;;15.96;74.99;99700.84;4977562;28;20045;-64
2021/08/04 08:58:38;;;;;;;27.08;21.52;;;;;;;15.97;75.77;99702.53;4963323;28;20053;-64
2021/08/04 09:01:34;;;;;;;29.90;21.13;;;;;;;15.97;75.05;99708.66;4963318;28;20178;-64
2021/08/04 09:04:26;;;;;;;25.45;20.58;;;;;;;15.97;74.96;99699.94;4962940;28;20538;-64
2021/08/04 09:07:32;;;;;;;25.98;21.30;;;;;;;15.97;74.82;99698.19;4977505;28;20089;-64
2021/08/04 09:10:35;;;;;;;23.20;20.08;;;;;;;15.99;75.06;99700.78;4962769;28;20093;-65
2021/08/04 09:13:35;;;;;;;22.23;19.80;;;;;;;16.00;75.11;99705.13;4977163;28;20066;-65
2021/08/04 09:16:31;;;;;;;25.02;20.80;;;;;;;16.03;74.99;99697.25;4977434;28;20061;-64
2021/08/04 09:19:24;;;;;;;23.33;19.42;;;;;;;16.04;74.97;99695.53;4977301;28;20042;-63
2021/08/04 09:22:14;;;;;;;23.48;18.98;;;;;;;16.05;74.81;99689.38;4962881;28;20097;-64
2021/08/04 09:25:09;;;;;;;21.30;17.73;;;;;;;16.06;74.83;99688.50;4962674;28;20042;-64
2021/08/04 09:27:59;;;;;;;25.02;21.30;;;;;;;16.08;75.09;99691.97;4962346;28;20146;-64
2021/08/04 09:30:59;;;;;;;29.75;21.67;;;;;;;16.09;74.84;99681.50;4962632;28;20581;-64
2021/08/04 09:33:49;;;;;;;22.88;20.48;;;;;;;16.12;74.56;99683.22;4962772;28;20534;-64
2021/08/04 09:36:32;;;;;;;23.00;20.52;;;;;;;16.13;74.75;99682.34;4962806;28;20062;-64
2021/08/04 09:39:22;;;;;;;24.95;21.55;;;;;;;16.15;74.71;99688.41;4977302;28;20058;-64
2021/08/04 09:42:08;;;;;;;24.17;20.45;;;;;;;16.17;74.69;99688.38;4962655;28;20478;-64
2021/08/04 09:44:57;;;;;;;24.75;20.67;;;;;;;16.16;74.68;99682.31;4962418;28;20111;-65
2021/08/04 09:47:55;;;;;;;22.77;19.38;;;;;;;16.16;74.55;99671.84;4976797;28;20105;-65
2021/08/04 09:50:48;;;;;;;20.20;17.63;;;;;;;16.16;74.46;99671.84;4976819;28;20158;-64
2021/08/04 09:53:35;;;;;;;24.13;21.45;;;;;;;16.16;74.57;99671.84;4976574;28;20109;-64
2021/08/04 09:56:25;;;;;;;20.17;18.08;;;;;;;16.16;74.56;99673.56;4976814;28;20057;-64
2021/08/04 09:59:09;;;;;;;25.77;20.35;;;;;;;16.17;74.39;99676.19;4962076;28;20139;-64
2021/08/04 10:01:58;;;;;;;31.35;19.80;;;;;;;16.19;74.31;99674.41;4975594;28;20049;-64
2021/08/04 10:05:10;;;;;;;23.63;20.15;;;;;;;16.18;74.53;99664.84;4961789;28;20102;-64
2021/08/04 10:08:10;;;;;;;26.30;20.20;;;;;;;16.21;74.50;99674.38;4961969;28;20074;-64
2021/08/04 10:10:59;;;;;;;24.63;20.65;;;;;;;16.20;74.38;99673.50;4976246;28;20517;-64
2021/08/04 10:13:46;;;;;;;21.15;18.92;;;;;;;16.22;74.34;99676.97;4976474;28;20414;-64
2021/08/04 10:16:39;;;;;;;21.80;18.25;;;;;;;16.22;74.45;99666.50;4962047;28;20398;-64
2021/08/04 10:19:30;;;;;;;25.05;18.55;;;;;;;16.23;74.22;99664.78;4975832;28;20053;-64
2021/08/04 10:22:14;;;;;;;24.45;17.65;;;;;;;16.24;74.44;99656.06;4961562;28;20410;-64
2021/08/04 10:25:01;;;;;;;22.27;18.35;;;;;;;16.25;74.13;99663.00;4976220;28;20057;-65
2021/08/04 10:27:46;;;;;;;18.55;16.58;;;;;;;16.25;74.36;99668.25;4961517;28;20221;-65
2021/08/04 10:30:37;;;;;;;19.02;16.55;;;;;;;16.26;74.16;99660.38;4976035;28;20146;-64
2021/08/04 10:33:22;;;;;;;20.33;17.00;;;;;;;16.27;74.08;99661.25;4975646;28;20041;-65
2021/08/04 10:36:18;;;;;;;22.63;17.98;;;;;;;16.27;74.03;99658.63;4975467;28;20053;-64
2021/08/04 10:39:22;;;;;;;21.58;16.83;;;;;;;16.28;74.16;99649.88;4961464;28;20066;-64
2021/08/04 10:42:12;;;;;;;19.92;16.27;;;;;;;16.28;73.72;99650.75;4961181;28;20057;-64
2021/08/04 10:45:28;;;;;;;20.92;17.50;;;;;;;16.29;74.15;99644.63;4975695;28;20058;-64
2021/08/04 10:48:28;;;;;;;19.00;16.63;;;;;;;16.31;74.00;99644.59;4960981;28;20046;-64
2021/08/04 10:51:20;;;;;;;17.63;15.45;;;;;;;16.32;74.15;99648.97;4961281;28;20530;-65
2021/08/04 10:54:13;;;;;;;18.95;15.85;;;;;;;16.31;73.61;99644.59;4975805;28;20058;-64
2021/08/04 10:57:06;;;;;;;17.95;15.93;;;;;;;16.33;73.95;99644.59;4961302;28;20081;-64
2021/08/04 11:00:19;;;;;;;18.88;15.65;;;;;;;16.33;73.78;99640.22;4975679;28;20512;-64
2021/08/04 11:03:31;;;;;;;19.88;16.20;;;;;;;16.33;73.86;99634.16;4961006;28;20101;-64
2021/08/04 11:06:16;;;;;;;17.27;14.43;;;;;;;16.33;73.83;99637.59;4975407;28;20531;-64
2021/08/04 11:09:14;;;;;;;;;;;;;;;16.33;73.87;99640.22;4961262;28;20074;-64
2021/08/04 11:12:04;;;;;;;18.95;15.15;;;;;;;16.33;73.88;99642.00;4974714;28;19924;-63
2021/08/04 11:15:02;;;;;;;19.13;15.50;;;;;;;16.33;73.68;99642.84;4960975;28;20410;-64
2021/08/04 11:18:24;;;;;;;19.05;15.88;;;;;;;16.34;73.81;99644.56;4975452;28;20057;-64
2021/08/04 11:21:15;;;;;;;17.15;14.40;;;;;;;16.35;73.83;99637.59;4975248;28;20518;-64
2021/08/04 11:24:08;;;;;;;20.13;14.45;;;;;;;16.35;73.63;99633.22;4960897;28;20053;-64
2021/08/04 11:27:04;;;;;;;19.70;15.65;;;;;;;16.37;73.70;99633.19;4975196;28;20093;-63
2021/08/04 11:29:56;;;;;;;17.35;14.32;;;;;;;16.37;73.58;99628.84;4960493;28;20414;-64
2021/08/04 11:32:49;;;;;;;19.70;15.50;;;;;;;16.38;73.53;99627.09;4974469;28;20522;-65
2021/08/04 11:35:33;;;;;;;17.17;14.80;;;;;;;16.39;73.83;99627.06;4960311;28;20053;-64
2021/08/04 11:38:51;;;;;;;18.52;16.23;;;;;;;16.40;73.58;99626.19;4960078;28;20101;-64
2021/08/04 11:41:49;;;;;;;20.48;17.83;;;;;;;16.42;73.51;99632.28;4960469;28;20466;-64
2021/08/04 11:44:36;;;;;;;20.38;17.17;;;;;;;16.42;73.38;99628.78;4960113;28;20066;-64
2021/08/04 11:47:20;;;;;;;19.80;17.08;;;;;;;16.43;73.49;99627.88;4974548;28;20054;-64
2021/08/04 11:50:09;;;;;;;23.20;16.50;;;;;;;16.44;73.35;99630.47;4974718;28;20093;-64
2021/08/04 11:53:01;;;;;;;25.98;17.65;;;;;;;16.46;73.44;99622.63;4947026;28;20045;-63
2021/08/04 11:55:47;;;;;;;21.77;17.63;;;;;;;16.47;73.40;99616.50;4974946;28;20134;-64
2021/08/04 11:58:36;;;;;;;21.98;18.13;;;;;;;16.47;73.22;99620.84;4974860;28;20097;-63
2021/08/04 12:01:25;;;;;;;20.77;17.83;;;;;;;16.48;73.42;99622.59;4974671;28;20049;-64
2021/08/04 12:04:12;;;;;;;22.90;17.80;;;;;;;16.48;73.31;99613.00;4974136;28;20066;-64
2021/08/04 12:07:02;;;;;;;22.20;17.42;;;;;;;16.48;73.40;99613.00;4974982;28;20057;-64
2021/08/04 12:09:49;;;;;;;21.48;17.67;;;;;;;16.49;73.21;99609.50;4960287;28;20565;-63
2021/08/04 12:12:36;;;;;;;22.00;17.90;;;;;;;16.51;73.37;99604.22;4974731;28;20524;-64
2021/08/04 12:15:24;;;;;;;19.80;16.92;;;;;;;16.51;73.30;99609.47;4960606;28;20085;-64
2021/08/04 12:18:10;;;;;;;19.65;16.75;;;;;;;16.51;73.23;99606.84;4960093;28;20094;-63
2021/08/04 12:20:59;;;;;;;19.73;16.85;;;;;;;16.54;73.20;99601.56;4959733;28;20069;-63
2021/08/04 12:23:47;;;;;;;21.00;18.23;;;;;;;16.55;73.39;99601.53;4961353;28;20045;-63
2021/08/04 12:26:46;;;;;;;24.20;17.95;;;;;;;16.54;73.17;99604.19;4963745;28;20133;-64
2021/08/04 12:29:35;;;;;;;22.42;17.25;;;;;;;16.54;72.86;99597.19;4963687;28;20098;-64
2021/08/04 12:32:28;;;;;;;19.95;16.77;;;;;;;16.55;73.02;99609.38;4963817;28;20049;-65
2021/08/04 12:35:19;;;;;;;17.33;15.57;;;;;;;16.55;73.00;99604.16;4963880;28;20105;-63
2021/08/04 12:38:09;;;;;;;20.23;16.98;;;;;;;16.57;72.97;99605.00;4963686;28;20053;-63
2021/08/04 12:40:55;;;;;;;20.10;15.77;;;;;;;16.59;73.11;99599.72;4978233;28;20133;-64
2021/08/04 12:43:41;;;;;;;21.60;18.17;;;;;;;16.59;73.05;99599.72;4963141;28;20050;-64
2021/08/04 12:46:30;;;;;;;22.15;17.20;;;;;;;16.59;73.00;99598.00;4977733;28;20469;-63
2021/08/04 12:49:26;;;;;;;23.08;16.52;;;;;;;16.61;73.24;99595.34;4963652;28;20058;-64
2021/08/04 12:52:13;;;;;;;22.50;18.38;;;;;;;16.62;73.01;99599.69;4962952;28;20125;-64
2021/08/04 12:55:13;;;;;;;19.13;17.08;;;;;;;16.64;72.93;99597.06;4963345;28;20054;-64
2021/08/04 12:58:08;;;;;;;23.00;18.10;;;;;;;16.64;73.07;99597.06;4963658;28;20561;-65
2021/08/04 13:00:52;;;;;;;20.45;18.30;;;;;;;16.64;72.97;99595.31;4963207;28;20569;-64
2021/08/04 13:03:45;;;;;;;20.52;18.00;;;;;;;16.65;72.98;99601.41;4977967;28;20101;-64
2021/08/04 13:06:59;;;;;;;19.83;17.73;;;;;;;16.65;72.74;99596.19;4962891;28;20514;-63
2021/08/04 13:09:54;;;;;;;20.23;16.92;;;;;;;16.64;72.74;99595.31;4977780;28;20521;-64
2021/08/04 13:12:55;;;;;;;20.38;17.27;;;;;;;16.66;73.25;99592.69;4962935;28;20446;-64
2021/08/04 13:15:48;;;;;;;17.75;15.95;;;;;;;16.65;72.80;99586.56;4963312;28;20061;-64
2021/08/04 13:18:38;;;;;;;22.20;16.42;;;;;;;16.67;72.65;99589.16;4977330;28;20101;-64